sensor_id;sensor_type;location;lat;lon;timestamp;P1;durP1;ratioP1;P2;durP2;ratioP2
51082;SDS011;37131;42.694;23.350;2022-07-29T00:01:15;8.55;;;3.90;;
51082;SDS011;37131;42.694;23.350;2022-07-29T00:03:41;6.93;;;4.38;;
51082;SDS011;37131;42.694;23.350;2022-07-29T00:06:06;6.00;;;3.88;;
51082;SDS011;37131;42.694;23.350;2022-07-29T00:08:32;8.50;;;4.35;;
51082;SDS011;37131;42.694;23.350;2022-07-29T00:10:57;7.70;;;4.22;;
51082;SDS011;37131;42.694;23.350;2022-07-29T00:13:22;6.78;;;4.07;;
51082;SDS011;37131;42.694;23.350;2022-07-29T00:15:48;7.90;;;4.07;;
51082;SDS011;37131;42.694;23.350;2022-07-29T00:18:13;6.05;;;3.90;;
51082;SDS011;37131;42.694;23.350;2022-07-29T00:20:39;7.78;;;3.70;;
51082;SDS011;37131;42.694;23.350;2022-07-29T00:23:04;5.80;;;3.90;;
51082;SDS011;37131;42.694;23.350;2022-07-29T00:25:29;9.25;;;4.95;;
51082;SDS011;37131;42.694;23.350;2022-07-29T00:27:55;11.60;;;5.03;;
51082;SDS011;37131;42.694;23.350;2022-07-29T00:30:20;7.75;;;4.28;;
51082;SDS011;37131;42.694;23.350;2022-07-29T00:32:45;11.52;;;4.93;;
51082;SDS011;37131;42.694;23.350;2022-07-29T00:35:11;6.43;;;4.22;;
51082;SDS011;37131;42.694;23.350;2022-07-29T00:37:55;9.10;;;4.80;;
51082;SDS011;37131;42.694;23.350;2022-07-29T00:40:20;7.47;;;4.60;;
51082;SDS011;37131;42.694;23.350;2022-07-29T00:42:47;9.60;;;5.03;;
51082;SDS011;37131;42.694;23.350;2022-07-29T00:45:14;8.98;;;4.65;;
51082;SDS011;37131;42.694;23.350;2022-07-29T00:47:41;10.43;;;5.45;;
51082;SDS011;37131;42.694;23.350;2022-07-29T00:50:08;8.25;;;4.95;;
51082;SDS011;37131;42.694;23.350;2022-07-29T00:52:36;8.93;;;4.82;;
51082;SDS011;37131;42.694;23.350;2022-07-29T00:55:03;9.48;;;5.07;;
51082;SDS011;37131;42.694;23.350;2022-07-29T00:57:30;13.57;;;5.82;;
51082;SDS011;37131;42.694;23.350;2022-07-29T00:59:55;12.77;;;5.88;;
51082;SDS011;37131;42.694;23.350;2022-07-29T01:02:21;16.58;;;6.50;;
51082;SDS011;37131;42.694;23.350;2022-07-29T01:04:46;9.98;;;5.88;;
51082;SDS011;37131;42.694;23.350;2022-07-29T01:07:13;18.70;;;7.35;;
51082;SDS011;37131;42.694;23.350;2022-07-29T01:09:38;15.05;;;7.18;;
51082;SDS011;37131;42.694;23.350;2022-07-29T01:12:06;16.73;;;7.32;;
51082;SDS011;37131;42.694;23.350;2022-07-29T01:14:32;12.93;;;6.72;;
51082;SDS011;37131;42.694;23.350;2022-07-29T01:17:00;16.52;;;6.70;;
51082;SDS011;37131;42.694;23.350;2022-07-29T01:30:09;13.70;;;7.13;;
51082;SDS011;37131;42.694;23.350;2022-07-29T01:32:36;14.35;;;7.43;;
51082;SDS011;37131;42.694;23.350;2022-07-29T01:40:31;15.98;;;7.15;;
51082;SDS011;37131;42.694;23.350;2022-07-29T01:43:03;14.32;;;7.53;;
51082;SDS011;37131;42.694;23.350;2022-07-29T01:45:40;15.70;;;8.23;;
51082;SDS011;37131;42.694;23.350;2022-07-29T01:48:14;12.55;;;7.03;;
51082;SDS011;37131;42.694;23.350;2022-07-29T01:50:46;14.73;;;7.55;;
51082;SDS011;37131;42.694;23.350;2022-07-29T01:53:15;15.80;;;7.75;;
51082;SDS011;37131;42.694;23.350;2022-07-29T01:55:46;20.42;;;8.55;;
51082;SDS011;37131;42.694;23.350;2022-07-29T01:58:13;15.23;;;7.13;;
51082;SDS011;37131;42.694;23.350;2022-07-29T02:00:42;16.73;;;8.00;;
51082;SDS011;37131;42.694;23.350;2022-07-29T02:03:11;18.75;;;8.52;;
51082;SDS011;37131;42.694;23.350;2022-07-29T02:05:37;16.13;;;7.82;;
51082;SDS011;37131;42.694;23.350;2022-07-29T02:08:06;15.73;;;7.70;;
51082;SDS011;37131;42.694;23.350;2022-07-29T02:10:33;14.85;;;7.35;;
51082;SDS011;37131;42.694;23.350;2022-07-29T02:13:01;18.10;;;7.00;;
51082;SDS011;37131;42.694;23.350;2022-07-29T02:15:29;16.58;;;7.05;;
51082;SDS011;37131;42.694;23.350;2022-07-29T02:18:01;13.48;;;7.43;;
51082;SDS011;37131;42.694;23.350;2022-07-29T02:20:29;12.52;;;6.88;;
51082;SDS011;37131;42.694;23.350;2022-07-29T02:22:57;12.40;;;7.15;;
51082;SDS011;37131;42.694;23.350;2022-07-29T02:25:24;17.65;;;7.22;;
51082;SDS011;37131;42.694;23.350;2022-07-29T02:27:51;13.75;;;7.38;;
51082;SDS011;37131;42.694;23.350;2022-07-29T02:30:18;16.63;;;7.50;;
51082;SDS011;37131;42.694;23.350;2022-07-29T02:32:46;16.15;;;7.32;;
51082;SDS011;37131;42.694;23.350;2022-07-29T02:35:15;13.32;;;7.60;;
51082;SDS011;37131;42.694;23.350;2022-07-29T02:37:42;19.42;;;8.52;;
51082;SDS011;37131;42.694;23.350;2022-07-29T02:40:10;18.23;;;8.10;;
51082;SDS011;37131;42.694;23.350;2022-07-29T02:42:39;15.98;;;8.20;;
51082;SDS011;37131;42.694;23.350;2022-07-29T02:45:07;21.67;;;8.68;;
51082;SDS011;37131;42.694;23.350;2022-07-29T02:47:38;19.02;;;8.00;;
51082;SDS011;37131;42.694;23.350;2022-07-29T02:50:11;20.73;;;7.97;;
51082;SDS011;37131;42.694;23.350;2022-07-29T02:52:54;12.85;;;6.97;;
51082;SDS011;37131;42.694;23.350;2022-07-29T02:55:31;15.55;;;8.07;;
51082;SDS011;37131;42.694;23.350;2022-07-29T02:58:09;18.20;;;8.77;;
51082;SDS011;37131;42.694;23.350;2022-07-29T03:00:48;19.45;;;8.68;;
51082;SDS011;37131;42.694;23.350;2022-07-29T03:03:17;19.13;;;8.80;;
51082;SDS011;37131;42.694;23.350;2022-07-29T03:05:43;16.67;;;7.47;;
51082;SDS011;37131;42.694;23.350;2022-07-29T03:08:10;21.05;;;8.68;;
51082;SDS011;37131;42.694;23.350;2022-07-29T03:10:37;16.08;;;7.40;;
51082;SDS011;37131;42.694;23.350;2022-07-29T03:13:05;17.50;;;7.82;;
51082;SDS011;37131;42.694;23.350;2022-07-29T03:15:32;10.52;;;6.70;;
51082;SDS011;37131;42.694;23.350;2022-07-29T03:17:58;21.20;;;7.05;;
51082;SDS011;37131;42.694;23.350;2022-07-29T03:20:26;10.40;;;6.03;;
51082;SDS011;37131;42.694;23.350;2022-07-29T03:22:51;13.52;;;6.57;;
51082;SDS011;37131;42.694;23.350;2022-07-29T03:25:17;18.55;;;6.72;;
51082;SDS011;37131;42.694;23.350;2022-07-29T03:27:44;10.45;;;6.22;;
51082;SDS011;37131;42.694;23.350;2022-07-29T03:30:11;12.40;;;6.57;;
51082;SDS011;37131;42.694;23.350;2022-07-29T03:32:37;14.73;;;6.90;;
51082;SDS011;37131;42.694;23.350;2022-07-29T03:35:05;10.15;;;6.43;;
51082;SDS011;37131;42.694;23.350;2022-07-29T03:37:31;13.90;;;6.32;;
51082;SDS011;37131;42.694;23.350;2022-07-29T03:39:58;13.82;;;5.78;;
51082;SDS011;37131;42.694;23.350;2022-07-29T03:42:25;10.45;;;5.30;;
51082;SDS011;37131;42.694;23.350;2022-07-29T03:44:55;10.18;;;5.18;;
51082;SDS011;37131;42.694;23.350;2022-07-29T03:47:24;9.88;;;5.45;;
51082;SDS011;37131;42.694;23.350;2022-07-29T03:49:55;8.35;;;5.47;;
51082;SDS011;37131;42.694;23.350;2022-07-29T03:52:24;9.45;;;5.35;;
51082;SDS011;37131;42.694;23.350;2022-07-29T03:54:50;13.18;;;6.18;;
51082;SDS011;37131;42.694;23.350;2022-07-29T03:57:15;8.65;;;5.60;;
51082;SDS011;37131;42.694;23.350;2022-07-29T03:59:43;9.30;;;4.72;;
51082;SDS011;37131;42.694;23.350;2022-07-29T04:02:11;13.80;;;5.60;;
51082;SDS011;37131;42.694;23.350;2022-07-29T04:04:36;9.27;;;4.65;;
51082;SDS011;37131;42.694;23.350;2022-07-29T04:07:02;9.00;;;4.78;;
51082;SDS011;37131;42.694;23.350;2022-07-29T04:09:28;7.93;;;5.25;;
51082;SDS011;37131;42.694;23.350;2022-07-29T04:11:54;8.32;;;4.75;;
51082;SDS011;37131;42.694;23.350;2022-07-29T04:14:19;8.73;;;5.20;;
51082;SDS011;37131;42.694;23.350;2022-07-29T04:16:45;12.07;;;5.60;;
51082;SDS011;37131;42.694;23.350;2022-07-29T04:19:11;9.35;;;5.10;;
51082;SDS011;37131;42.694;23.350;2022-07-29T04:21:37;8.35;;;5.03;;
51082;SDS011;37131;42.694;23.350;2022-07-29T04:24:03;8.88;;;4.72;;
51082;SDS011;37131;42.694;23.350;2022-07-29T04:26:28;6.95;;;4.60;;
51082;SDS011;37131;42.694;23.350;2022-07-29T04:28:54;7.97;;;4.93;;
51082;SDS011;37131;42.694;23.350;2022-07-29T04:31:19;9.07;;;4.50;;
51082;SDS011;37131;42.694;23.350;2022-07-29T04:33:44;9.98;;;4.95;;
51082;SDS011;37131;42.694;23.350;2022-07-29T04:36:10;12.23;;;5.25;;
51082;SDS011;37131;42.694;23.350;2022-07-29T04:38:36;11.70;;;5.18;;
51082;SDS011;37131;42.694;23.350;2022-07-29T04:41:02;9.35;;;4.80;;
51082;SDS011;37131;42.694;23.350;2022-07-29T04:43:27;11.38;;;4.18;;
51082;SDS011;37131;42.694;23.350;2022-07-29T04:45:53;14.48;;;4.88;;
51082;SDS011;37131;42.694;23.350;2022-07-29T04:48:18;6.40;;;3.85;;
51082;SDS011;37131;42.694;23.350;2022-07-29T04:50:43;7.57;;;4.13;;
51082;SDS011;37131;42.694;23.350;2022-07-29T04:53:09;6.47;;;3.85;;
51082;SDS011;37131;42.694;23.350;2022-07-29T04:55:34;6.00;;;3.65;;
51082;SDS011;37131;42.694;23.350;2022-07-29T04:58:01;5.45;;;3.58;;
51082;SDS011;37131;42.694;23.350;2022-07-29T05:00:26;5.78;;;3.78;;
51082;SDS011;37131;42.694;23.350;2022-07-29T05:02:52;6.75;;;3.67;;
51082;SDS011;37131;42.694;23.350;2022-07-29T05:05:18;8.98;;;3.92;;
51082;SDS011;37131;42.694;23.350;2022-07-29T05:07:43;7.40;;;3.55;;
51082;SDS011;37131;42.694;23.350;2022-07-29T05:10:08;5.18;;;3.58;;
51082;SDS011;37131;42.694;23.350;2022-07-29T05:12:34;5.80;;;3.30;;
51082;SDS011;37131;42.694;23.350;2022-07-29T05:15:00;7.75;;;3.53;;
51082;SDS011;37131;42.694;23.350;2022-07-29T05:17:25;7.03;;;3.08;;
51082;SDS011;37131;42.694;23.350;2022-07-29T05:19:51;6.32;;;3.58;;
51082;SDS011;37131;42.694;23.350;2022-07-29T05:22:20;6.18;;;3.15;;
51082;SDS011;37131;42.694;23.350;2022-07-29T05:24:46;4.75;;;3.35;;
51082;SDS011;37131;42.694;23.350;2022-07-29T05:27:11;5.60;;;3.47;;
51082;SDS011;37131;42.694;23.350;2022-07-29T05:29:37;6.80;;;3.55;;
51082;SDS011;37131;42.694;23.350;2022-07-29T05:32:03;8.38;;;3.60;;
51082;SDS011;37131;42.694;23.350;2022-07-29T05:34:29;7.88;;;4.00;;
51082;SDS011;37131;42.694;23.350;2022-07-29T05:36:55;7.30;;;3.55;;
51082;SDS011;37131;42.694;23.350;2022-07-29T05:39:20;4.40;;;2.90;;
51082;SDS011;37131;42.694;23.350;2022-07-29T05:41:45;5.50;;;3.15;;
51082;SDS011;37131;42.694;23.350;2022-07-29T05:44:11;8.25;;;3.33;;
51082;SDS011;37131;42.694;23.350;2022-07-29T05:46:38;6.65;;;3.60;;
51082;SDS011;37131;42.694;23.350;2022-07-29T05:49:04;8.23;;;3.45;;
51082;SDS011;37131;42.694;23.350;2022-07-29T05:51:31;6.32;;;3.70;;
51082;SDS011;37131;42.694;23.350;2022-07-29T05:53:57;5.22;;;2.95;;
51082;SDS011;37131;42.694;23.350;2022-07-29T05:56:22;8.27;;;3.20;;
51082;SDS011;37131;42.694;23.350;2022-07-29T05:58:48;6.47;;;3.15;;
51082;SDS011;37131;42.694;23.350;2022-07-29T06:01:13;4.18;;;2.67;;
51082;SDS011;37131;42.694;23.350;2022-07-29T06:03:39;4.15;;;2.97;;
51082;SDS011;37131;42.694;23.350;2022-07-29T06:06:06;7.35;;;3.28;;
51082;SDS011;37131;42.694;23.350;2022-07-29T06:08:32;4.95;;;2.67;;
51082;SDS011;37131;42.694;23.350;2022-07-29T06:10:58;4.45;;;2.90;;
51082;SDS011;37131;42.694;23.350;2022-07-29T06:13:24;4.70;;;2.90;;
51082;SDS011;37131;42.694;23.350;2022-07-29T06:15:50;8.20;;;2.90;;
51082;SDS011;37131;42.694;23.350;2022-07-29T06:18:15;5.32;;;2.85;;
51082;SDS011;37131;42.694;23.350;2022-07-29T06:20:41;3.65;;;2.80;;
51082;SDS011;37131;42.694;23.350;2022-07-29T06:23:06;7.80;;;3.00;;
51082;SDS011;37131;42.694;23.350;2022-07-29T06:25:32;6.38;;;3.10;;
51082;SDS011;37131;42.694;23.350;2022-07-29T06:27:59;6.53;;;2.88;;
51082;SDS011;37131;42.694;23.350;2022-07-29T06:30:25;7.15;;;2.92;;
51082;SDS011;37131;42.694;23.350;2022-07-29T06:32:50;3.92;;;2.55;;
51082;SDS011;37131;42.694;23.350;2022-07-29T06:35:15;4.60;;;2.72;;
51082;SDS011;37131;42.694;23.350;2022-07-29T06:37:41;5.40;;;2.92;;
51082;SDS011;37131;42.694;23.350;2022-07-29T06:40:06;9.15;;;2.92;;
51082;SDS011;37131;42.694;23.350;2022-07-29T06:42:51;5.50;;;2.67;;
51082;SDS011;37131;42.694;23.350;2022-07-29T06:45:16;6.32;;;3.08;;
51082;SDS011;37131;42.694;23.350;2022-07-29T06:47:42;5.57;;;2.83;;
51082;SDS011;37131;42.694;23.350;2022-07-29T06:50:07;5.75;;;2.50;;
51082;SDS011;37131;42.694;23.350;2022-07-29T06:52:36;5.63;;;2.88;;
51082;SDS011;37131;42.694;23.350;2022-07-29T06:55:02;5.32;;;3.00;;
51082;SDS011;37131;42.694;23.350;2022-07-29T06:57:28;2.97;;;2.05;;
51082;SDS011;37131;42.694;23.350;2022-07-29T06:59:55;4.80;;;2.53;;
51082;SDS011;37131;42.694;23.350;2022-07-29T07:02:21;7.28;;;2.38;;
51082;SDS011;37131;42.694;23.350;2022-07-29T07:04:47;6.70;;;2.60;;
51082;SDS011;37131;42.694;23.350;2022-07-29T07:07:12;3.28;;;2.10;;
51082;SDS011;37131;42.694;23.350;2022-07-29T07:09:38;4.18;;;2.42;;
51082;SDS011;37131;42.694;23.350;2022-07-29T07:12:03;4.60;;;1.92;;
51082;SDS011;37131;42.694;23.350;2022-07-29T07:14:29;3.60;;;2.10;;
51082;SDS011;37131;42.694;23.350;2022-07-29T07:16:54;3.30;;;2.00;;
51082;SDS011;37131;42.694;23.350;2022-07-29T07:19:20;4.82;;;1.90;;
51082;SDS011;37131;42.694;23.350;2022-07-29T07:21:45;3.85;;;1.90;;
51082;SDS011;37131;42.694;23.350;2022-07-29T07:24:10;6.38;;;2.00;;
51082;SDS011;37131;42.694;23.350;2022-07-29T07:26:36;3.47;;;2.05;;
51082;SDS011;37131;42.694;23.350;2022-07-29T07:29:01;3.92;;;2.10;;
51082;SDS011;37131;42.694;23.350;2022-07-29T07:31:27;4.32;;;2.10;;
51082;SDS011;37131;42.694;23.350;2022-07-29T07:33:52;5.07;;;1.92;;
51082;SDS011;37131;42.694;23.350;2022-07-29T07:36:18;5.00;;;2.00;;
51082;SDS011;37131;42.694;23.350;2022-07-29T07:38:44;4.35;;;2.45;;
51082;SDS011;37131;42.694;23.350;2022-07-29T07:41:09;3.50;;;2.28;;
51082;SDS011;37131;42.694;23.350;2022-07-29T07:43:35;3.25;;;2.05;;
51082;SDS011;37131;42.694;23.350;2022-07-29T07:46:00;4.20;;;2.33;;
51082;SDS011;37131;42.694;23.350;2022-07-29T07:48:26;4.95;;;2.15;;
51082;SDS011;37131;42.694;23.350;2022-07-29T07:50:51;7.22;;;2.55;;
51082;SDS011;37131;42.694;23.350;2022-07-29T07:53:17;6.55;;;2.40;;
51082;SDS011;37131;42.694;23.350;2022-07-29T07:55:42;3.55;;;2.03;;
51082;SDS011;37131;42.694;23.350;2022-07-29T07:58:09;4.18;;;2.20;;
51082;SDS011;37131;42.694;23.350;2022-07-29T08:00:34;3.38;;;2.10;;
51082;SDS011;37131;42.694;23.350;2022-07-29T08:03:00;5.93;;;2.30;;
51082;SDS011;37131;42.694;23.350;2022-07-29T08:05:25;4.50;;;2.38;;
51082;SDS011;37131;42.694;23.350;2022-07-29T08:07:51;4.65;;;2.30;;
51082;SDS011;37131;42.694;23.350;2022-07-29T08:10:18;3.75;;;2.20;;
51082;SDS011;37131;42.694;23.350;2022-07-29T08:13:04;4.65;;;2.35;;
51082;SDS011;37131;42.694;23.350;2022-07-29T08:15:30;3.58;;;1.88;;
51082;SDS011;37131;42.694;23.350;2022-07-29T08:17:56;4.57;;;1.60;;
51082;SDS011;37131;42.694;23.350;2022-07-29T08:20:21;5.78;;;2.08;;
51082;SDS011;37131;42.694;23.350;2022-07-29T08:22:46;2.25;;;1.63;;
51082;SDS011;37131;42.694;23.350;2022-07-29T08:25:12;3.85;;;1.75;;
51082;SDS011;37131;42.694;23.350;2022-07-29T08:27:37;2.72;;;1.65;;
51082;SDS011;37131;42.694;23.350;2022-07-29T08:30:03;4.03;;;1.45;;
51082;SDS011;37131;42.694;23.350;2022-07-29T08:32:29;3.30;;;1.85;;
51082;SDS011;37131;42.694;23.350;2022-07-29T08:34:54;4.38;;;1.88;;
51082;SDS011;37131;42.694;23.350;2022-07-29T08:37:20;5.40;;;1.70;;
51082;SDS011;37131;42.694;23.350;2022-07-29T08:39:45;3.17;;;2.00;;
51082;SDS011;37131;42.694;23.350;2022-07-29T08:42:10;3.00;;;1.70;;
51082;SDS011;37131;42.694;23.350;2022-07-29T08:44:36;2.53;;;1.88;;
51082;SDS011;37131;42.694;23.350;2022-07-29T08:47:02;3.15;;;1.52;;
51082;SDS011;37131;42.694;23.350;2022-07-29T08:49:28;6.30;;;1.80;;
51082;SDS011;37131;42.694;23.350;2022-07-29T08:51:53;3.47;;;1.75;;
51082;SDS011;37131;42.694;23.350;2022-07-29T08:54:21;2.40;;;1.70;;
51082;SDS011;37131;42.694;23.350;2022-07-29T08:56:48;5.40;;;1.60;;
51082;SDS011;37131;42.694;23.350;2022-07-29T08:59:15;3.75;;;1.70;;
51082;SDS011;37131;42.694;23.350;2022-07-29T09:01:44;5.10;;;2.05;;
51082;SDS011;37131;42.694;23.350;2022-07-29T09:04:11;2.53;;;1.83;;
51082;SDS011;37131;42.694;23.350;2022-07-29T09:06:42;2.50;;;1.40;;
51082;SDS011;37131;42.694;23.350;2022-07-29T09:09:09;2.17;;;1.60;;
51082;SDS011;37131;42.694;23.350;2022-07-29T09:11:35;3.50;;;1.60;;
51082;SDS011;37131;42.694;23.350;2022-07-29T09:14:01;5.30;;;1.60;;
51082;SDS011;37131;42.694;23.350;2022-07-29T09:16:43;4.20;;;1.90;;
51082;SDS011;37131;42.694;23.350;2022-07-29T09:19:19;2.63;;;1.60;;
51082;SDS011;37131;42.694;23.350;2022-07-29T09:21:45;2.75;;;1.58;;
51082;SDS011;37131;42.694;23.350;2022-07-29T09:24:23;2.95;;;1.20;;
51082;SDS011;37131;42.694;23.350;2022-07-29T09:27:21;4.88;;;1.40;;
51082;SDS011;37131;42.694;23.350;2022-07-29T09:30:04;3.63;;;1.75;;
51082;SDS011;37131;42.694;23.350;2022-07-29T09:32:31;2.95;;;1.60;;
51082;SDS011;37131;42.694;23.350;2022-07-29T09:35:14;2.85;;;1.75;;
51082;SDS011;37131;42.694;23.350;2022-07-29T09:37:44;4.47;;;2.00;;
51082;SDS011;37131;42.694;23.350;2022-07-29T09:40:31;3.05;;;1.70;;
51082;SDS011;37131;42.694;23.350;2022-07-29T09:42:55;4.22;;;1.90;;
51082;SDS011;37131;42.694;23.350;2022-07-29T09:45:26;3.67;;;1.60;;
51082;SDS011;37131;42.694;23.350;2022-07-29T09:47:55;2.33;;;1.52;;
51082;SDS011;37131;42.694;23.350;2022-07-29T09:50:35;4.78;;;1.60;;
51082;SDS011;37131;42.694;23.350;2022-07-29T09:53:06;2.85;;;1.70;;
51082;SDS011;37131;42.694;23.350;2022-07-29T09:55:45;2.83;;;1.40;;
51082;SDS011;37131;42.694;23.350;2022-07-29T09:58:15;3.63;;;1.65;;
51082;SDS011;37131;42.694;23.350;2022-07-29T10:00:42;4.88;;;1.83;;
51082;SDS011;37131;42.694;23.350;2022-07-29T10:03:09;3.38;;;1.67;;
51082;SDS011;37131;42.694;23.350;2022-07-29T10:05:34;4.18;;;1.67;;
51082;SDS011;37131;42.694;23.350;2022-07-29T10:07:59;2.65;;;1.30;;
51082;SDS011;37131;42.694;23.350;2022-07-29T10:10:28;2.85;;;2.03;;
51082;SDS011;37131;42.694;23.350;2022-07-29T10:13:02;5.00;;;1.60;;
51082;SDS011;37131;42.694;23.350;2022-07-29T10:15:36;2.72;;;1.20;;
51082;SDS011;37131;42.694;23.350;2022-07-29T10:18:04;3.53;;;1.60;;
51082;SDS011;37131;42.694;23.350;2022-07-29T10:20:30;4.28;;;1.67;;
51082;SDS011;37131;42.694;23.350;2022-07-29T10:22:56;2.55;;;1.25;;
51082;SDS011;37131;42.694;23.350;2022-07-29T10:25:21;2.30;;;1.30;;
51082;SDS011;37131;42.694;23.350;2022-07-29T10:27:48;5.25;;;1.60;;
51082;SDS011;37131;42.694;23.350;2022-07-29T10:30:16;3.30;;;1.65;;
51082;SDS011;37131;42.694;23.350;2022-07-29T10:32:48;1.98;;;1.40;;
51082;SDS011;37131;42.694;23.350;2022-07-29T10:35:44;3.30;;;1.73;;
51082;SDS011;37131;42.694;23.350;2022-07-29T10:38:39;2.63;;;1.20;;
51082;SDS011;37131;42.694;23.350;2022-07-29T10:43:51;5.57;;;1.63;;
51082;SDS011;37131;42.694;23.350;2022-07-29T10:46:18;3.45;;;1.65;;
51082;SDS011;37131;42.694;23.350;2022-07-29T10:57:09;2.65;;;1.65;;
51082;SDS011;37131;42.694;23.350;2022-07-29T10:59:45;3.50;;;1.70;;
51082;SDS011;37131;42.694;23.350;2022-07-29T11:07:24;4.68;;;1.65;;
51082;SDS011;37131;42.694;23.350;2022-07-29T11:15:03;3.03;;;1.80;;
51082;SDS011;37131;42.694;23.350;2022-07-29T11:20:37;3.63;;;1.75;;
51082;SDS011;37131;42.694;23.350;2022-07-29T11:31:16;3.92;;;1.65;;
51082;SDS011;37131;42.694;23.350;2022-07-29T11:33:44;2.88;;;1.70;;
51082;SDS011;37131;42.694;23.350;2022-07-29T11:38:36;2.65;;;1.80;;
51082;SDS011;37131;42.694;23.350;2022-07-29T11:43:46;4.07;;;1.88;;
51082;SDS011;37131;42.694;23.350;2022-07-29T11:46:13;5.60;;;1.95;;
51082;SDS011;37131;42.694;23.350;2022-07-29T11:48:42;3.53;;;1.85;;
51082;SDS011;37131;42.694;23.350;2022-07-29T11:51:09;2.70;;;1.50;;
51082;SDS011;37131;42.694;23.350;2022-07-29T11:53:36;2.90;;;1.73;;
51082;SDS011;37131;42.694;23.350;2022-07-29T11:56:03;2.42;;;1.63;;
51082;SDS011;37131;42.694;23.350;2022-07-29T11:58:29;11.93;;;2.97;;
51082;SDS011;37131;42.694;23.350;2022-07-29T12:00:55;4.30;;;1.95;;
51082;SDS011;37131;42.694;23.350;2022-07-29T12:03:25;4.85;;;2.20;;
51082;SDS011;37131;42.694;23.350;2022-07-29T12:05:51;4.45;;;1.90;;
51082;SDS011;37131;42.694;23.350;2022-07-29T12:08:18;2.60;;;1.90;;
51082;SDS011;37131;42.694;23.350;2022-07-29T12:10:47;3.70;;;1.58;;
51082;SDS011;37131;42.694;23.350;2022-07-29T12:13:14;2.95;;;1.98;;
51082;SDS011;37131;42.694;23.350;2022-07-29T12:15:40;2.67;;;1.58;;
51082;SDS011;37131;42.694;23.350;2022-07-29T12:18:13;5.13;;;2.13;;
51082;SDS011;37131;42.694;23.350;2022-07-29T12:20:42;6.03;;;2.33;;
51082;SDS011;37131;42.694;23.350;2022-07-29T12:23:09;3.08;;;2.00;;
51082;SDS011;37131;42.694;23.350;2022-07-29T12:25:39;4.38;;;2.30;;
51082;SDS011;37131;42.694;23.350;2022-07-29T12:28:08;3.17;;;2.17;;
51082;SDS011;37131;42.694;23.350;2022-07-29T12:30:43;4.10;;;2.10;;
51082;SDS011;37131;42.694;23.350;2022-07-29T12:33:25;3.25;;;1.90;;
51082;SDS011;37131;42.694;23.350;2022-07-29T12:36:10;3.95;;;2.00;;
51082;SDS011;37131;42.694;23.350;2022-07-29T12:38:40;3.75;;;2.28;;
51082;SDS011;37131;42.694;23.350;2022-07-29T12:41:05;4.13;;;2.17;;
51082;SDS011;37131;42.694;23.350;2022-07-29T12:43:31;2.78;;;1.95;;
51082;SDS011;37131;42.694;23.350;2022-07-29T12:45:57;3.67;;;2.13;;
51082;SDS011;37131;42.694;23.350;2022-07-29T12:48:36;5.28;;;2.30;;
51082;SDS011;37131;42.694;23.350;2022-07-29T12:51:07;4.65;;;2.22;;
51082;SDS011;37131;42.694;23.350;2022-07-29T12:53:34;4.05;;;2.38;;
51082;SDS011;37131;42.694;23.350;2022-07-29T12:56:00;3.85;;;2.28;;
51082;SDS011;37131;42.694;23.350;2022-07-29T12:58:29;4.05;;;1.90;;
51082;SDS011;37131;42.694;23.350;2022-07-29T13:01:13;3.67;;;2.35;;
51082;SDS011;37131;42.694;23.350;2022-07-29T13:06:57;4.05;;;2.05;;
51082;SDS011;37131;42.694;23.350;2022-07-29T13:14:12;3.42;;;2.17;;
51082;SDS011;37131;42.694;23.350;2022-07-29T13:19:34;3.90;;;2.13;;
51082;SDS011;37131;42.694;23.350;2022-07-29T13:22:05;5.35;;;1.90;;
51082;SDS011;37131;42.694;23.350;2022-07-29T13:24:32;5.18;;;2.30;;
51082;SDS011;37131;42.694;23.350;2022-07-29T13:26:57;4.55;;;2.50;;
51082;SDS011;37131;42.694;23.350;2022-07-29T13:29:24;4.05;;;2.30;;
51082;SDS011;37131;42.694;23.350;2022-07-29T13:31:51;4.03;;;2.58;;
51082;SDS011;37131;42.694;23.350;2022-07-29T13:34:17;4.43;;;2.13;;
51082;SDS011;37131;42.694;23.350;2022-07-29T13:36:44;5.72;;;2.30;;
51082;SDS011;37131;42.694;23.350;2022-07-29T13:39:10;2.47;;;1.80;;
51082;SDS011;37131;42.694;23.350;2022-07-29T13:41:36;4.38;;;2.20;;
51082;SDS011;37131;42.694;23.350;2022-07-29T13:44:01;4.65;;;2.40;;
51082;SDS011;37131;42.694;23.350;2022-07-29T13:46:27;6.10;;;1.92;;
51082;SDS011;37131;42.694;23.350;2022-07-29T13:48:52;2.97;;;2.00;;
51082;SDS011;37131;42.694;23.350;2022-07-29T13:51:18;3.63;;;1.73;;
51082;SDS011;37131;42.694;23.350;2022-07-29T13:53:43;4.70;;;1.88;;
51082;SDS011;37131;42.694;23.350;2022-07-29T13:56:09;5.30;;;2.10;;
51082;SDS011;37131;42.694;23.350;2022-07-29T13:58:34;3.05;;;2.25;;
51082;SDS011;37131;42.694;23.350;2022-07-29T14:01:00;4.55;;;2.10;;
51082;SDS011;37131;42.694;23.350;2022-07-29T14:03:25;3.47;;;2.20;;
51082;SDS011;37131;42.694;23.350;2022-07-29T14:05:51;4.20;;;2.15;;
51082;SDS011;37131;42.694;23.350;2022-07-29T14:08:16;4.28;;;2.13;;
51082;SDS011;37131;42.694;23.350;2022-07-29T14:10:42;4.65;;;2.30;;
51082;SDS011;37131;42.694;23.350;2022-07-29T14:13:07;3.65;;;2.25;;
51082;SDS011;37131;42.694;23.350;2022-07-29T14:15:33;4.13;;;1.90;;
51082;SDS011;37131;42.694;23.350;2022-07-29T14:17:58;4.68;;;2.30;;
51082;SDS011;37131;42.694;23.350;2022-07-29T14:20:24;3.85;;;2.00;;
51082;SDS011;37131;42.694;23.350;2022-07-29T14:22:49;3.20;;;1.98;;
51082;SDS011;37131;42.694;23.350;2022-07-29T14:25:14;3.22;;;1.88;;
51082;SDS011;37131;42.694;23.350;2022-07-29T14:27:40;5.00;;;2.00;;
51082;SDS011;37131;42.694;23.350;2022-07-29T14:30:05;4.18;;;2.15;;
51082;SDS011;37131;42.694;23.350;2022-07-29T14:32:31;3.05;;;2.20;;
51082;SDS011;37131;42.694;23.350;2022-07-29T14:34:57;4.18;;;2.20;;
51082;SDS011;37131;42.694;23.350;2022-07-29T14:37:22;5.03;;;2.10;;
51082;SDS011;37131;42.694;23.350;2022-07-29T14:39:47;4.10;;;1.83;;
51082;SDS011;37131;42.694;23.350;2022-07-29T14:42:13;3.05;;;2.08;;
51082;SDS011;37131;42.694;23.350;2022-07-29T14:44:39;3.90;;;2.42;;
51082;SDS011;37131;42.694;23.350;2022-07-29T14:47:06;4.60;;;2.65;;
51082;SDS011;37131;42.694;23.350;2022-07-29T14:49:31;6.03;;;2.15;;
51082;SDS011;37131;42.694;23.350;2022-07-29T14:51:56;3.75;;;2.20;;
51082;SDS011;37131;42.694;23.350;2022-07-29T14:54:22;5.65;;;2.15;;
51082;SDS011;37131;42.694;23.350;2022-07-29T14:56:47;2.65;;;1.77;;
51082;SDS011;37131;42.694;23.350;2022-07-29T14:59:14;3.17;;;2.08;;
51082;SDS011;37131;42.694;23.350;2022-07-29T15:01:40;5.28;;;2.03;;
51082;SDS011;37131;42.694;23.350;2022-07-29T15:04:05;3.40;;;2.20;;
51082;SDS011;37131;42.694;23.350;2022-07-29T15:06:31;2.88;;;2.22;;
51082;SDS011;37131;42.694;23.350;2022-07-29T15:08:56;3.95;;;2.30;;
51082;SDS011;37131;42.694;23.350;2022-07-29T15:11:21;3.30;;;2.42;;
51082;SDS011;37131;42.694;23.350;2022-07-29T15:13:47;3.53;;;2.20;;
51082;SDS011;37131;42.694;23.350;2022-07-29T15:16:12;6.22;;;2.47;;
51082;SDS011;37131;42.694;23.350;2022-07-29T15:18:38;5.28;;;2.42;;
51082;SDS011;37131;42.694;23.350;2022-07-29T15:21:03;6.32;;;2.47;;
51082;SDS011;37131;42.694;23.350;2022-07-29T15:23:31;4.43;;;2.38;;
51082;SDS011;37131;42.694;23.350;2022-07-29T15:25:56;4.28;;;2.33;;
51082;SDS011;37131;42.694;23.350;2022-07-29T15:28:22;4.78;;;2.30;;
51082;SDS011;37131;42.694;23.350;2022-07-29T15:30:47;4.25;;;2.10;;
51082;SDS011;37131;42.694;23.350;2022-07-29T15:33:13;4.45;;;2.50;;
51082;SDS011;37131;42.694;23.350;2022-07-29T15:35:38;3.47;;;2.45;;
51082;SDS011;37131;42.694;23.350;2022-07-29T15:38:04;3.83;;;2.25;;